createdAt,value
2023-02-09T00:01:02.257Z,50.56
2023-02-09T00:03:28.960Z,51.17
2023-02-09T00:05:55.666Z,51.11
2023-02-09T00:08:22.565Z,50.85
2023-02-09T00:10:49.244Z,50.54
2023-02-09T00:13:15.890Z,51.05
2023-02-09T00:15:42.528Z,51.55
2023-02-09T00:18:09.207Z,51.48
2023-02-09T00:20:35.886Z,50.92
2023-02-09T00:23:02.540Z,50.55
2023-02-09T00:25:29.178Z,50.50
2023-02-09T00:27:55.869Z,50.80
2023-02-09T00:30:22.542Z,51.00
2023-02-09T00:32:49.225Z,50.74
2023-02-09T00:35:15.894Z,50.74
2023-02-09T00:37:42.554Z,51.21
2023-02-09T00:40:09.262Z,51.56
2023-02-09T00:42:35.906Z,51.18
2023-02-09T00:45:02.547Z,51.26
2023-02-09T00:47:29.190Z,51.45
2023-02-09T00:49:55.830Z,51.64
2023-02-09T00:52:22.494Z,51.43
2023-02-09T00:54:49.122Z,51.67
2023-02-09T00:57:15.745Z,51.07
2023-02-09T00:59:42.411Z,51.22
2023-02-09T01:02:09.131Z,51.29
2023-02-09T01:04:35.749Z,51.78
2023-02-09T01:07:02.392Z,51.50
2023-02-09T01:09:29.054Z,52.20
2023-02-09T01:11:55.727Z,52.27
2023-02-09T01:14:22.384Z,52.38
2023-02-09T01:16:49.083Z,52.70
2023-02-09T01:19:15.787Z,52.80
2023-02-09T01:21:42.448Z,52.71
2023-02-09T01:24:09.077Z,53.85
2023-02-09T01:26:35.789Z,53.56
2023-02-09T01:29:02.501Z,52.73
2023-02-09T01:31:29.200Z,52.15
2023-02-09T01:33:55.987Z,52.74
2023-02-09T01:36:22.675Z,52.96
2023-02-09T01:38:49.329Z,52.93
2023-02-09T01:41:16.075Z,53.00
2023-02-09T01:43:42.774Z,52.65
2023-02-09T01:46:09.458Z,52.62
2023-02-09T01:48:36.108Z,52.57
2023-02-09T01:51:02.781Z,53.02
2023-02-09T01:53:29.426Z,53.00
2023-02-09T01:55:56.115Z,52.54
2023-02-09T01:58:22.747Z,53.40
2023-02-09T02:00:49.470Z,52.97
2023-02-09T02:03:16.104Z,53.70
2023-02-09T02:05:42.750Z,53.87
2023-02-09T02:08:09.564Z,53.73
2023-02-09T02:10:36.220Z,53.19
2023-02-09T02:13:02.855Z,53.31
2023-02-09T02:15:29.463Z,54.07
2023-02-09T02:17:56.107Z,54.22
2023-02-09T02:20:22.746Z,53.72
2023-02-09T02:22:49.431Z,54.05
2023-02-09T02:25:16.062Z,54.07
2023-02-09T02:27:42.823Z,54.07
2023-02-09T02:30:09.547Z,54.06
2023-02-09T02:32:36.226Z,54.05
2023-02-09T02:35:02.913Z,54.53
2023-02-09T02:37:29.639Z,53.94
2023-02-09T02:39:56.308Z,55.23
2023-02-09T02:42:22.914Z,54.77
2023-02-09T02:44:49.556Z,55.24
2023-02-09T02:47:16.218Z,54.78
2023-02-09T02:49:42.821Z,54.72
2023-02-09T02:52:09.547Z,54.81
2023-02-09T02:54:36.229Z,54.75
2023-02-09T02:57:02.927Z,54.69
2023-02-09T02:59:29.577Z,55.26
2023-02-09T03:01:56.334Z,54.85
2023-02-09T03:04:23.032Z,54.45
2023-02-09T03:06:49.636Z,55.18
2023-02-09T03:09:16.301Z,55.35
2023-02-09T03:11:42.925Z,54.57
2023-02-09T03:14:09.568Z,55.24
2023-02-09T03:16:36.174Z,55.25
2023-02-09T03:19:05.401Z,54.78
2023-02-09T03:21:32.095Z,54.71
2023-02-09T03:23:58.779Z,54.57
2023-02-09T03:26:25.459Z,55.90
2023-02-09T03:28:52.070Z,55.14
2023-02-09T03:31:18.818Z,55.14
2023-02-09T03:33:45.520Z,54.96
2023-02-09T03:36:12.145Z,55.33
2023-02-09T03:38:38.845Z,54.89
2023-02-09T03:41:07.748Z,55.71
2023-02-09T03:43:34.571Z,55.79
2023-02-09T03:46:01.317Z,55.80
2023-02-09T03:48:27.932Z,55.55
2023-02-09T03:50:54.631Z,56.14
2023-02-09T03:53:21.261Z,55.49
2023-02-09T03:55:47.922Z,56.04
2023-02-09T03:58:14.610Z,56.55
2023-02-09T04:00:41.583Z,56.55
2023-02-09T04:03:08.200Z,55.81
2023-02-09T04:05:35.383Z,56.20
2023-02-09T04:08:02.265Z,55.41
2023-02-09T04:10:28.935Z,55.41
2023-02-09T04:12:56.018Z,55.45
2023-02-09T04:15:22.841Z,55.12
2023-02-09T04:17:50.833Z,55.56
2023-02-09T04:20:17.613Z,56.17
2023-02-09T04:22:44.293Z,55.95
2023-02-09T04:25:10.973Z,55.31
2023-02-09T04:27:37.669Z,56.15
2023-02-09T04:30:04.276Z,55.67
2023-02-09T04:32:30.911Z,55.30
2023-02-09T04:34:57.541Z,55.18
2023-02-09T04:37:24.243Z,55.10
2023-02-09T04:39:50.892Z,56.33
2023-02-09T04:42:17.529Z,56.05
2023-02-09T04:44:44.178Z,55.98
2023-02-09T04:47:10.782Z,55.97
2023-02-09T04:49:37.462Z,56.16
2023-02-09T04:52:04.065Z,55.97
2023-02-09T04:54:30.750Z,56.82
2023-02-09T04:56:57.408Z,57.04
2023-02-09T04:59:24.041Z,57.52
2023-02-09T05:01:50.685Z,58.87
2023-02-09T05:04:17.343Z,58.29
2023-02-09T05:06:43.993Z,56.89
2023-02-09T05:09:10.631Z,58.06
2023-02-09T05:11:37.270Z,57.57
2023-02-09T05:14:03.976Z,57.55
2023-02-09T05:16:30.737Z,57.94
2023-02-09T05:18:57.472Z,57.94
2023-02-09T05:21:24.139Z,56.87
2023-02-09T05:23:50.825Z,57.46
2023-02-09T05:26:17.454Z,57.01
2023-02-09T05:28:44.095Z,57.40
2023-02-09T05:31:10.775Z,57.85
2023-02-09T05:33:37.571Z,58.02
2023-02-09T05:36:04.251Z,57.00
2023-02-09T05:38:30.872Z,56.89
2023-02-09T05:40:57.537Z,57.46
2023-02-09T05:43:24.203Z,57.86
2023-02-09T05:45:50.960Z,58.16
2023-02-09T05:48:17.708Z,58.31
2023-02-09T05:50:44.687Z,58.22
2023-02-09T05:53:12.204Z,57.05
2023-02-09T05:55:39.498Z,57.10
2023-02-09T05:58:06.224Z,56.75
2023-02-09T06:00:32.909Z,56.70
2023-02-09T06:02:59.592Z,57.37
2023-02-09T06:05:26.259Z,56.94
2023-02-09T06:08:11.872Z,57.39
2023-02-09T06:10:38.496Z,57.65
2023-02-09T06:13:05.169Z,58.80
2023-02-09T06:15:31.821Z,58.16
2023-02-09T06:17:58.427Z,57.29
2023-02-09T06:20:25.011Z,56.72
2023-02-09T06:22:51.715Z,58.51
2023-02-09T06:25:18.429Z,58.59
2023-02-09T06:27:45.113Z,58.40
2023-02-09T06:30:11.762Z,57.83
2023-02-09T06:32:38.411Z,57.35
2023-02-09T06:35:05.056Z,57.75
2023-02-09T06:37:31.743Z,57.31
2023-02-09T06:39:58.392Z,57.53
2023-02-09T06:42:25.033Z,57.60
2023-02-09T06:44:51.728Z,57.51
2023-02-09T06:47:18.383Z,56.56
2023-02-09T06:49:45.090Z,57.12
2023-02-09T06:52:11.853Z,56.54
2023-02-09T06:54:38.570Z,57.36
2023-02-09T06:57:05.209Z,56.87
2023-02-09T06:59:31.848Z,57.10
2023-02-09T07:01:58.571Z,57.12
2023-02-09T07:04:25.225Z,56.83
2023-02-09T07:06:51.871Z,57.06
2023-02-09T07:09:18.522Z,57.64
2023-02-09T07:11:45.195Z,57.67
2023-02-09T07:14:11.807Z,57.80
2023-02-09T07:16:38.467Z,57.62
2023-02-09T07:19:05.100Z,56.83
2023-02-09T07:21:31.737Z,57.12
2023-02-09T07:23:58.428Z,56.24
2023-02-09T07:26:25.112Z,56.19
2023-02-09T07:28:51.844Z,57.16
2023-02-09T07:31:18.721Z,58.13
2023-02-09T07:33:45.483Z,57.64
2023-02-09T07:36:12.118Z,57.23
2023-02-09T07:38:38.910Z,56.23
2023-02-09T07:41:05.684Z,55.73
2023-02-09T07:43:32.345Z,56.45
2023-02-09T07:45:59.053Z,55.67
2023-02-09T07:48:25.680Z,54.91
2023-02-09T07:50:52.301Z,54.76
2023-02-09T07:53:18.916Z,54.61
2023-02-09T07:55:45.897Z,54.02
2023-02-09T07:58:12.771Z,53.69
2023-02-09T08:00:39.423Z,53.54
2023-02-09T08:03:06.039Z,52.93
2023-02-09T08:05:32.655Z,53.08
2023-02-09T08:07:59.358Z,53.85
2023-02-09T08:10:26.132Z,53.77
2023-02-09T08:12:52.849Z,53.81
2023-02-09T08:15:19.461Z,53.43
2023-02-09T08:17:46.134Z,52.84
2023-02-09T08:20:12.810Z,52.04
2023-02-09T08:22:39.452Z,52.36
2023-02-09T08:25:06.152Z,52.23
2023-02-09T08:27:32.806Z,51.51
2023-02-09T08:29:59.404Z,51.44
2023-02-09T08:32:26.048Z,52.21
2023-02-09T08:34:52.740Z,51.20
2023-02-09T08:37:19.346Z,51.02
2023-02-09T08:39:46.005Z,51.32
2023-02-09T08:42:12.695Z,51.22
2023-02-09T08:44:39.394Z,50.48
2023-02-09T08:47:06.163Z,50.03
2023-02-09T08:49:32.913Z,49.96
2023-02-09T08:51:59.633Z,49.28
2023-02-09T08:54:26.243Z,49.15
2023-02-09T08:56:52.872Z,49.20
2023-02-09T08:59:20.203Z,48.63
2023-02-09T09:01:47.120Z,48.31
2023-02-09T09:04:13.881Z,48.28
2023-02-09T09:06:40.651Z,48.02
2023-02-09T09:09:07.315Z,48.71
2023-02-09T09:11:33.999Z,47.27
2023-02-09T09:14:00.682Z,47.56
2023-02-09T09:16:27.381Z,47.50
2023-02-09T09:18:54.110Z,46.87
2023-02-09T09:21:20.798Z,46.64
2023-02-09T09:23:47.491Z,46.83
2023-02-09T09:26:14.223Z,45.95
2023-02-09T09:28:40.910Z,44.92
2023-02-09T09:31:07.612Z,44.78
2023-02-09T09:33:34.376Z,43.46
2023-02-09T09:36:01.056Z,44.85
2023-02-09T09:38:27.733Z,44.91
2023-02-09T09:40:54.418Z,45.33
2023-02-09T09:43:21.132Z,45.20
2023-02-09T09:45:48.106Z,44.02
2023-02-09T09:48:15.037Z,44.74
2023-02-09T09:50:41.699Z,43.19
2023-02-09T09:53:08.385Z,42.06
2023-02-09T09:55:35.057Z,41.81
2023-02-09T09:58:01.674Z,42.64
2023-02-09T10:00:28.343Z,42.08
2023-02-09T10:02:54.958Z,41.71
2023-02-09T10:05:21.727Z,40.08
2023-02-09T10:07:48.442Z,40.02
2023-02-09T10:10:15.100Z,40.34
2023-02-09T10:12:41.744Z,39.08
2023-02-09T10:15:08.454Z,39.08
2023-02-09T10:17:35.093Z,39.92
2023-02-09T10:20:01.709Z,39.61
2023-02-09T10:22:28.463Z,39.96
2023-02-09T10:24:55.226Z,38.56
2023-02-09T10:27:21.885Z,38.36
2023-02-09T10:29:48.579Z,38.58
2023-02-09T10:32:15.220Z,37.82
2023-02-09T10:34:41.903Z,38.20
2023-02-09T10:37:08.540Z,37.45
2023-02-09T10:39:35.189Z,37.42
2023-02-09T10:42:01.812Z,37.09
2023-02-09T10:44:28.428Z,38.48
2023-02-09T10:46:55.050Z,36.32
2023-02-09T10:49:21.707Z,36.75
2023-02-09T10:51:50.238Z,37.58
2023-02-09T10:54:17.648Z,37.51
2023-02-09T10:56:44.297Z,37.77
2023-02-09T10:59:10.931Z,36.39
2023-02-09T11:01:37.664Z,36.51
2023-02-09T11:04:04.379Z,37.41
2023-02-09T11:06:31.110Z,35.59
2023-02-09T11:08:57.733Z,37.03
2023-02-09T11:11:24.400Z,38.53
2023-02-09T11:13:51.032Z,36.33
2023-02-09T11:16:17.704Z,37.10
2023-02-09T11:18:44.396Z,37.25
2023-02-09T11:21:11.045Z,35.01
2023-02-09T11:23:37.748Z,36.40
2023-02-09T11:26:04.367Z,36.24
2023-02-09T11:28:31.025Z,35.61
2023-02-09T11:30:57.785Z,36.11
2023-02-09T11:33:24.494Z,36.25
2023-02-09T11:35:51.152Z,36.15
2023-02-09T11:38:17.797Z,35.72
2023-02-09T11:40:44.746Z,37.42
2023-02-09T11:43:11.476Z,35.72
2023-02-09T11:45:38.173Z,34.92
2023-02-09T11:48:04.790Z,34.70
2023-02-09T11:50:31.424Z,34.71
2023-02-09T11:52:58.079Z,32.99
2023-02-09T11:55:24.708Z,34.42
2023-02-09T11:57:51.427Z,34.35
2023-02-09T12:00:18.085Z,34.39
2023-02-09T12:02:44.728Z,33.26
2023-02-09T12:05:11.441Z,33.00
2023-02-09T12:07:38.151Z,33.85
2023-02-09T12:10:04.799Z,35.18
2023-02-09T12:12:31.469Z,34.28
2023-02-09T12:14:58.136Z,36.15
2023-02-09T12:17:24.823Z,37.01
2023-02-09T12:19:51.515Z,35.32
2023-02-09T12:22:18.169Z,35.97
2023-02-09T12:24:44.833Z,35.66
2023-02-09T12:27:11.495Z,35.52
2023-02-09T12:29:38.190Z,36.47
2023-02-09T12:32:04.871Z,36.16
2023-02-09T12:34:31.584Z,35.87
2023-02-09T12:36:58.247Z,34.10
2023-02-09T12:39:24.918Z,34.16
2023-02-09T12:41:51.664Z,34.50
2023-02-09T12:44:18.323Z,34.67
2023-02-09T12:46:45.046Z,35.99
2023-02-09T12:49:11.903Z,35.40
2023-02-09T12:51:38.610Z,35.62
2023-02-09T12:54:05.318Z,34.68
2023-02-09T12:56:31.966Z,33.04
2023-02-09T12:58:58.622Z,33.68
2023-02-09T13:01:25.374Z,32.61
2023-02-09T13:03:52.057Z,32.13
2023-02-09T13:06:18.802Z,32.75
2023-02-09T13:08:45.504Z,33.34
2023-02-09T13:11:12.193Z,33.88
2023-02-09T13:13:38.832Z,34.20
2023-02-09T13:16:05.845Z,32.70
2023-02-09T13:18:33.236Z,32.72
2023-02-09T13:20:59.903Z,32.64
2023-02-09T13:23:26.597Z,32.15
2023-02-09T13:25:53.303Z,32.12
2023-02-09T13:28:20.371Z,31.81
2023-02-09T13:30:47.088Z,32.62
2023-02-09T13:33:13.783Z,34.04
2023-02-09T13:35:40.505Z,35.62
2023-02-09T13:38:07.303Z,35.37
2023-02-09T13:40:33.937Z,35.19
2023-02-09T13:45:45.202Z,35.84
2023-02-09T13:48:13.189Z,36.03
2023-02-09T13:50:39.842Z,36.91
2023-02-09T13:53:06.456Z,37.05
2023-02-09T13:55:33.119Z,35.06
2023-02-09T13:57:59.777Z,35.26
2023-02-09T14:00:26.461Z,35.38
2023-02-09T14:02:53.185Z,36.98
2023-02-09T14:05:19.837Z,35.63
2023-02-09T14:07:46.503Z,36.90
2023-02-09T14:10:13.301Z,36.34
2023-02-09T14:12:39.996Z,35.92
2023-02-09T14:15:06.737Z,34.81
2023-02-09T14:17:33.485Z,33.90
2023-02-09T14:20:00.198Z,32.75
2023-02-09T14:22:26.904Z,32.38
2023-02-09T14:24:53.580Z,33.20
2023-02-09T14:27:20.259Z,34.14
2023-02-09T14:29:46.933Z,35.23
2023-02-09T14:32:15.425Z,34.71
2023-02-09T14:34:45.953Z,35.92
2023-02-09T14:37:12.607Z,36.29
2023-02-09T14:39:39.967Z,34.89
2023-02-09T14:42:06.618Z,33.98
2023-02-09T14:44:33.282Z,33.09
2023-02-09T14:46:59.953Z,34.05
2023-02-09T14:49:26.596Z,34.59
2023-02-09T14:51:53.373Z,35.08
2023-02-09T14:54:20.061Z,35.20
2023-02-09T14:56:46.745Z,34.60
2023-02-09T14:59:13.420Z,34.84
2023-02-09T15:01:40.556Z,33.73
2023-02-09T15:04:07.261Z,34.26
2023-02-09T15:06:33.975Z,35.11
2023-02-09T15:09:00.615Z,34.47
2023-02-09T15:11:27.296Z,34.33
2023-02-09T15:13:53.939Z,34.76
2023-02-09T15:16:20.724Z,35.10
2023-02-09T15:18:47.451Z,35.95
2023-02-09T15:21:14.099Z,35.48
2023-02-09T15:23:40.810Z,35.41
2023-02-09T15:26:07.449Z,36.02
2023-02-09T15:28:34.277Z,35.92
2023-02-09T15:31:01.006Z,35.53
2023-02-09T15:33:27.696Z,35.47
2023-02-09T15:35:54.358Z,35.40
2023-02-09T15:38:21.081Z,35.67
2023-02-09T15:40:47.973Z,35.64
2023-02-09T15:43:14.798Z,35.29
2023-02-09T15:45:41.488Z,36.27
2023-02-09T15:48:08.124Z,37.34
2023-02-09T15:50:34.847Z,37.22
2023-02-09T15:53:01.620Z,36.53
2023-02-09T15:55:28.320Z,36.33
2023-02-09T15:57:54.985Z,35.85
2023-02-09T16:00:21.659Z,36.13
2023-02-09T16:02:48.346Z,36.32
2023-02-09T16:05:15.090Z,35.61
2023-02-09T16:07:41.739Z,36.08
2023-02-09T16:10:08.338Z,36.01
2023-02-09T16:12:35.032Z,36.52
2023-02-09T16:15:01.671Z,36.63
2023-02-09T16:17:28.574Z,35.89
2023-02-09T16:19:55.224Z,36.24
2023-02-09T16:22:22.391Z,36.55
2023-02-09T16:24:49.062Z,35.80
2023-02-09T16:27:15.778Z,37.17
2023-02-09T16:29:42.402Z,38.43
2023-02-09T16:32:09.354Z,37.71
2023-02-09T16:34:36.053Z,38.05
2023-02-09T16:37:02.683Z,39.05
2023-02-09T16:39:29.377Z,38.68
2023-02-09T16:41:56.041Z,38.82
2023-02-09T16:44:22.758Z,38.43
2023-02-09T16:46:49.497Z,38.51
2023-02-09T16:49:16.120Z,39.54
2023-02-09T16:51:44.747Z,39.04
2023-02-09T16:54:11.374Z,39.36
2023-02-09T16:56:52.524Z,38.48
2023-02-09T16:59:20.518Z,38.92
2023-02-09T17:01:48.518Z,38.96
2023-02-09T17:04:15.434Z,39.23
2023-02-09T17:06:42.116Z,39.13
2023-02-09T17:09:08.765Z,39.09
2023-02-09T17:11:35.435Z,39.30
2023-02-09T17:14:02.089Z,40.14
2023-02-09T17:16:28.820Z,39.69
2023-02-09T17:18:55.507Z,40.77
2023-02-09T17:21:22.183Z,41.00
2023-02-09T17:23:48.891Z,41.01
2023-02-09T17:26:15.530Z,40.59
2023-02-09T17:28:43.135Z,40.93
2023-02-09T17:31:09.873Z,40.96
2023-02-09T17:33:36.570Z,41.84
2023-02-09T17:38:53.309Z,42.19
2023-02-09T17:41:19.987Z,42.19
2023-02-09T17:43:46.651Z,43.19
2023-02-09T17:46:13.327Z,43.82
2023-02-09T17:48:40.023Z,44.06
2023-02-09T17:51:06.730Z,43.60
2023-02-09T17:53:33.422Z,43.58
2023-02-09T17:56:00.136Z,43.27
2023-02-09T17:58:26.777Z,43.39
2023-02-09T18:00:53.507Z,42.98
2023-02-09T18:03:20.160Z,43.08
2023-02-09T18:05:46.999Z,43.00
2023-02-09T18:08:13.866Z,44.51
2023-02-09T18:10:40.542Z,44.02
2023-02-09T18:13:07.159Z,43.80
2023-02-09T18:15:33.796Z,43.22
2023-02-09T18:18:00.434Z,43.59
2023-02-09T18:20:27.055Z,43.71
2023-02-09T18:22:53.735Z,43.93
2023-02-09T18:25:20.414Z,43.76
2023-02-09T18:27:47.089Z,43.77
2023-02-09T18:30:13.757Z,43.89
2023-02-09T18:32:40.387Z,43.61
2023-02-09T18:35:07.142Z,44.04
2023-02-09T18:37:33.745Z,44.54
2023-02-09T18:40:00.376Z,44.34
2023-02-09T18:42:27.030Z,44.21
2023-02-09T18:44:53.692Z,43.99
2023-02-09T18:47:20.394Z,44.00
2023-02-09T18:49:47.066Z,44.33
2023-02-09T18:52:13.805Z,44.28
2023-02-09T18:54:40.528Z,44.76
2023-02-09T18:57:07.152Z,44.87
2023-02-09T18:59:33.829Z,44.95
2023-02-09T19:02:00.601Z,44.96
2023-02-09T19:04:27.381Z,45.47
2023-02-09T19:06:54.008Z,45.19
2023-02-09T19:09:20.704Z,45.35
2023-02-09T19:11:47.363Z,44.77
2023-02-09T19:14:14.072Z,45.16
2023-02-09T19:16:40.807Z,45.63
2023-02-09T19:19:07.447Z,45.54
2023-02-09T19:21:34.108Z,45.49
2023-02-09T19:24:00.774Z,45.47
2023-02-09T19:26:27.425Z,45.79
2023-02-09T19:28:54.093Z,45.78
2023-02-09T19:31:20.856Z,45.44
2023-02-09T19:33:47.465Z,45.36
2023-02-09T19:36:14.066Z,46.75
2023-02-09T19:38:40.757Z,47.28
2023-02-09T19:41:10.836Z,48.38
2023-02-09T19:43:37.670Z,47.40
2023-02-09T19:46:04.381Z,47.75
2023-02-09T19:48:31.095Z,47.53
2023-02-09T19:50:57.714Z,47.32
2023-02-09T19:53:24.407Z,47.40
2023-02-09T19:55:51.091Z,46.92
2023-02-09T19:58:17.782Z,47.27
2023-02-09T20:00:44.494Z,46.41
2023-02-09T20:03:11.114Z,47.22
2023-02-09T20:05:37.810Z,47.11
2023-02-09T20:08:04.498Z,48.29
2023-02-09T20:10:31.212Z,48.21
2023-02-09T20:12:57.846Z,48.19
2023-02-09T20:15:24.484Z,48.23
2023-02-09T20:17:51.277Z,48.04
2023-02-09T20:20:18.013Z,47.60
2023-02-09T20:22:44.770Z,47.80
2023-02-09T20:25:11.486Z,47.11
2023-02-09T20:27:38.243Z,47.21
2023-02-09T20:30:04.970Z,48.02
2023-02-09T20:32:31.678Z,47.69
2023-02-09T20:34:58.409Z,48.48
2023-02-09T20:37:25.091Z,47.52
2023-02-09T20:39:51.745Z,47.77
2023-02-09T20:42:18.479Z,47.82
2023-02-09T20:44:45.166Z,49.22
2023-02-09T20:47:11.905Z,49.50
2023-02-09T20:49:38.531Z,49.60
2023-02-09T20:52:05.188Z,49.31
2023-02-09T20:54:31.912Z,49.52
2023-02-09T20:56:58.593Z,49.04
2023-02-09T20:59:25.226Z,48.51
2023-02-09T21:01:51.829Z,48.96
2023-02-09T21:04:18.519Z,49.44
2023-02-09T21:06:45.273Z,48.92
2023-02-09T21:09:12.006Z,48.57
2023-02-09T21:11:38.672Z,49.01
2023-02-09T21:14:05.356Z,48.64
2023-02-09T21:16:32.055Z,48.07
2023-02-09T21:19:00.518Z,48.27
2023-02-09T21:21:27.146Z,48.83
2023-02-09T21:23:53.841Z,48.13
2023-02-09T21:26:20.492Z,48.60
2023-02-09T21:28:47.143Z,49.33
2023-02-09T21:31:13.794Z,48.85
2023-02-09T21:33:40.504Z,49.88
2023-02-09T21:36:07.175Z,48.62
2023-02-09T21:38:33.800Z,49.68
2023-02-09T21:41:00.540Z,49.88
2023-02-09T21:43:27.204Z,50.78
2023-02-09T21:45:53.913Z,49.83
2023-02-09T21:48:20.538Z,49.74
2023-02-09T21:50:47.149Z,50.24
2023-02-09T21:53:13.845Z,50.46
2023-02-09T21:55:40.527Z,49.37
2023-02-09T21:58:07.249Z,50.62
2023-02-09T22:00:33.939Z,51.08
2023-02-09T22:03:00.571Z,51.45
2023-02-09T22:05:27.219Z,50.26
2023-02-09T22:07:53.813Z,50.85
2023-02-09T22:10:20.481Z,49.80
2023-02-09T22:12:47.170Z,49.71
2023-02-09T22:15:13.829Z,50.96
2023-02-09T22:17:40.465Z,50.57
2023-02-09T22:20:07.171Z,50.85
2023-02-09T22:22:33.768Z,50.52
2023-02-09T22:25:00.435Z,50.37
2023-02-09T22:27:27.058Z,50.22
2023-02-09T22:29:53.797Z,50.69
2023-02-09T22:32:20.424Z,49.80
2023-02-09T22:34:47.102Z,49.84
2023-02-09T22:37:13.755Z,50.23
2023-02-09T22:39:40.482Z,51.12
2023-02-09T22:42:07.168Z,50.94
2023-02-09T22:44:33.836Z,51.94
2023-02-09T22:47:00.454Z,50.84
2023-02-09T22:49:27.146Z,51.60
2023-02-09T22:51:53.765Z,50.69
2023-02-09T22:54:20.383Z,51.65
2023-02-09T22:56:47.073Z,51.72
2023-02-09T22:59:13.663Z,51.21
2023-02-09T23:01:40.423Z,50.69
2023-02-09T23:04:07.236Z,50.51
2023-02-09T23:06:34.104Z,51.83
2023-02-09T23:09:00.716Z,51.03
2023-02-09T23:11:27.371Z,50.78
2023-02-09T23:14:08.589Z,50.65
2023-02-09T23:16:36.542Z,51.79
2023-02-09T23:19:03.305Z,50.56
2023-02-09T23:21:29.937Z,51.58
2023-02-09T23:23:56.641Z,51.40
2023-02-09T23:26:23.329Z,51.54
2023-02-09T23:28:50.071Z,50.95
2023-02-09T23:31:16.779Z,51.45
2023-02-09T23:33:43.454Z,51.21
2023-02-09T23:36:10.140Z,51.36
2023-02-09T23:38:36.809Z,51.82
2023-02-09T23:41:03.489Z,51.91
2023-02-09T23:43:30.137Z,51.55
2023-02-09T23:45:56.841Z,52.20
2023-02-09T23:48:23.516Z,51.56
2023-02-09T23:50:50.225Z,52.37
2023-02-09T23:53:16.869Z,51.94
2023-02-09T23:55:43.535Z,51.71
2023-02-09T23:58:10.207Z,51.99
